createdAt,value
2023-02-11T00:01:28.305Z,103247.59
2023-02-11T00:03:56.744Z,103234.28
2023-02-11T00:06:27.974Z,103237.97
2023-02-11T00:08:56.007Z,103235.13
2023-02-11T00:11:25.553Z,103236.00
2023-02-11T00:13:53.857Z,103239.44
2023-02-11T00:16:22.218Z,103235.06
2023-02-11T00:18:53.011Z,103228.91
2023-02-11T00:21:23.776Z,103229.72
2023-02-11T00:23:53.429Z,103220.81
2023-02-11T00:26:24.193Z,103221.56
2023-02-11T00:28:52.781Z,103223.34
2023-02-11T00:31:22.597Z,103217.97
2023-02-11T00:33:50.662Z,103227.00
2023-02-11T00:36:22.595Z,103221.63
2023-02-11T00:38:52.993Z,103216.19
2023-02-11T00:41:21.890Z,103212.72
2023-02-11T00:43:50.206Z,103212.78
2023-02-11T00:46:18.015Z,103219.09
2023-02-11T00:48:48.292Z,103203.03
2023-02-11T00:51:16.158Z,103208.31
2023-02-11T00:53:43.898Z,103204.00
2023-02-11T00:56:15.169Z,103201.28
2023-02-11T00:58:42.824Z,103206.59
2023-02-11T01:01:10.932Z,103203.81
2023-02-11T01:03:38.692Z,103214.34
2023-02-11T01:06:07.248Z,103219.78
2023-02-11T01:08:34.979Z,103215.50
2023-02-11T01:11:05.329Z,103213.69
2023-02-11T01:13:37.100Z,103215.44
2023-02-11T01:16:08.376Z,103214.59
2023-02-11T01:18:36.217Z,103215.38
2023-02-11T01:21:04.341Z,103221.75
2023-02-11T01:23:32.052Z,103209.44
2023-02-11T01:25:59.776Z,103212.97
2023-02-11T01:28:30.056Z,103217.59
2023-02-11T01:30:59.188Z,103225.50
2023-02-11T01:33:26.891Z,103220.91
2023-02-11T01:35:54.816Z,103227.00
2023-02-11T01:38:24.826Z,103220.03
2023-02-11T01:40:55.340Z,103207.66
2023-02-11T01:43:23.735Z,103207.72
2023-02-11T01:46:01.569Z,103207.59
2023-02-11T01:48:33.512Z,103204.78
2023-02-11T01:51:07.368Z,103195.06
2023-02-11T01:53:53.795Z,103190.75
2023-02-11T01:56:39.872Z,103176.59
2023-02-11T01:59:13.518Z,103180.03
2023-02-11T02:01:49.507Z,103183.47
2023-02-11T02:04:19.719Z,103193.41
2023-02-11T02:06:55.665Z,103197.97
2023-02-11T02:09:27.774Z,103194.34
2023-02-11T02:11:55.566Z,103189.91
2023-02-11T02:14:23.300Z,103192.69
2023-02-11T02:16:52.471Z,103189.84
2023-02-11T02:19:50.968Z,103182.72
2023-02-11T02:22:54.517Z,103167.56
2023-02-11T02:25:49.205Z,103170.06
2023-02-11T02:28:44.700Z,103169.22
2023-02-11T02:31:38.464Z,103170.00
2023-02-11T02:34:15.210Z,103169.94
2023-02-11T02:36:49.894Z,103177.03
2023-02-11T02:39:22.891Z,103179.63
2023-02-11T02:41:53.829Z,103174.47
2023-02-11T02:44:22.270Z,103172.78
2023-02-11T02:46:50.027Z,103175.44
2023-02-11T02:49:19.203Z,103175.50
2023-02-11T02:52:01.642Z,103161.34
2023-02-11T02:54:58.656Z,103160.13
2023-02-11T02:57:33.500Z,103159.28
2023-02-11T03:00:12.735Z,103153.97
2023-02-11T03:02:47.945Z,103149.47
2023-02-11T03:05:22.667Z,103152.19
2023-02-11T03:07:55.390Z,103148.63
2023-02-11T03:10:28.005Z,103145.69
2023-02-11T03:12:58.045Z,103144.75
2023-02-11T03:15:29.241Z,103151.91
2023-02-11T03:18:01.703Z,103146.69
2023-02-11T03:20:32.721Z,103159.16
2023-02-11T03:23:07.386Z,103164.44
2023-02-11T03:25:42.269Z,103161.72
2023-02-11T03:28:15.262Z,103168.00
2023-02-11T03:30:48.115Z,103161.75
2023-02-11T03:33:20.980Z,103161.72
2023-02-11T03:35:55.191Z,103170.34
2023-02-11T03:38:27.035Z,103165.09
2023-02-11T03:40:57.072Z,103165.09
2023-02-11T03:43:29.762Z,103169.56
2023-02-11T03:45:58.201Z,103166.97
2023-02-11T03:48:31.114Z,103155.16
2023-02-11T03:51:03.020Z,103165.88
2023-02-11T03:53:30.808Z,103163.91
2023-02-11T03:56:03.728Z,103155.88
2023-02-11T03:58:31.917Z,103143.63
2023-02-11T04:00:59.662Z,103143.69
2023-02-11T04:03:29.552Z,103138.06
2023-02-11T04:05:57.291Z,103146.28
2023-02-11T04:08:26.402Z,103141.84
2023-02-11T04:10:54.098Z,103152.38
2023-02-11T04:13:21.801Z,103148.66
2023-02-11T04:15:50.078Z,103143.16
2023-02-11T04:18:18.118Z,103146.59
2023-02-11T04:20:45.862Z,103146.66
2023-02-11T04:23:13.973Z,103149.59
2023-02-11T04:25:43.612Z,103156.00
2023-02-11T04:28:11.429Z,103156.13
2023-02-11T04:30:39.218Z,103157.03
2023-02-11T04:33:07.048Z,103171.13
2023-02-11T04:35:34.792Z,103175.66
2023-02-11T04:38:02.476Z,103180.06
2023-02-11T04:40:30.144Z,103183.66
2023-02-11T04:42:59.343Z,103183.66
2023-02-11T04:45:27.095Z,103181.88
2023-02-11T04:47:54.785Z,103176.56
2023-02-11T04:50:22.500Z,103171.19
2023-02-11T04:52:50.120Z,103161.38
2023-02-11T04:55:17.976Z,103158.53
2023-02-11T04:57:45.687Z,103150.50
2023-02-11T05:00:16.254Z,103154.25
2023-02-11T05:02:43.906Z,103154.38
2023-02-11T05:05:14.025Z,103153.53
2023-02-11T05:07:41.715Z,103156.19
2023-02-11T05:10:09.882Z,103161.38
2023-02-11T05:12:37.546Z,103156.91
2023-02-11T05:15:05.877Z,103151.59
2023-02-11T05:17:34.916Z,103154.13
2023-02-11T05:20:05.950Z,103146.16
2023-02-11T05:22:33.665Z,103149.59
2023-02-11T05:25:01.436Z,103151.38
2023-02-11T05:27:29.123Z,103151.66
2023-02-11T05:29:56.773Z,103158.22
2023-02-11T05:32:40.067Z,103155.16
2023-02-11T05:35:07.956Z,103154.22
2023-02-11T05:37:35.699Z,103150.56
2023-02-11T05:40:03.414Z,103147.72
2023-02-11T05:42:31.048Z,103144.03
2023-02-11T05:44:58.862Z,103145.75
2023-02-11T05:47:26.578Z,103142.31
2023-02-11T05:49:56.260Z,103149.53
2023-02-11T05:52:24.227Z,103138.06
2023-02-11T05:54:52.215Z,103137.91
2023-02-11T05:57:20.386Z,103126.31
2023-02-11T05:59:48.047Z,103123.78
2023-02-11T06:02:16.728Z,103130.91
2023-02-11T06:04:44.589Z,103136.25
2023-02-11T06:07:13.635Z,103142.38
2023-02-11T06:09:41.419Z,103139.59
2023-02-11T06:12:09.117Z,103133.44
2023-02-11T06:14:36.788Z,103146.63
2023-02-11T06:17:05.071Z,103145.81
2023-02-11T06:19:32.716Z,103153.88
2023-02-11T06:22:00.405Z,103159.13
2023-02-11T06:24:54.727Z,103155.63
2023-02-11T06:27:17.901Z,103154.59
2023-02-11T06:29:45.903Z,103152.06
2023-02-11T06:32:36.969Z,103152.31
2023-02-11T06:35:01.541Z,103146.28
2023-02-11T06:37:29.275Z,103148.19
2023-02-11T06:39:58.294Z,103151.66
2023-02-11T06:42:25.929Z,103162.91
2023-02-11T06:44:53.688Z,103155.75
2023-02-11T06:47:21.396Z,103157.53
2023-02-11T06:49:49.061Z,103161.19
2023-02-11T06:52:16.691Z,103160.38
2023-02-11T06:54:44.407Z,103163.97
2023-02-11T06:57:13.438Z,103175.56
2023-02-11T06:59:41.053Z,103169.47
2023-02-11T07:02:10.404Z,103168.53
2023-02-11T07:04:38.182Z,103165.03
2023-02-11T07:07:05.878Z,103162.50
2023-02-11T07:09:33.602Z,103161.66
2023-02-11T07:12:01.310Z,103163.38
2023-02-11T07:14:30.389Z,103169.47
2023-02-11T07:16:58.166Z,103174.72
2023-02-11T07:19:25.814Z,103174.78
2023-02-11T07:21:53.485Z,103182.00
2023-02-11T07:24:21.146Z,103179.47
2023-02-11T07:26:48.768Z,103177.69
2023-02-11T07:29:16.446Z,103190.09
2023-02-11T07:31:47.389Z,103182.94
2023-02-11T07:34:15.153Z,103189.03
2023-02-11T07:36:43.659Z,103182.88
2023-02-11T07:39:11.461Z,103189.81
2023-02-11T07:41:39.650Z,103183.72
2023-02-11T07:44:07.775Z,103190.03
2023-02-11T07:46:35.828Z,103193.66
2023-02-11T07:49:04.949Z,103187.44
2023-02-11T07:51:32.881Z,103189.28
2023-02-11T07:54:01.233Z,103187.69
2023-02-11T07:56:29.870Z,103186.72
2023-02-11T07:59:00.961Z,103186.72
2023-02-11T08:01:29.251Z,103182.25
2023-02-11T08:03:58.740Z,103176.97
2023-02-11T08:06:30.262Z,103188.53
2023-02-11T08:08:58.320Z,103192.16
2023-02-11T08:11:27.778Z,103203.00
2023-02-11T08:13:57.438Z,103201.22
2023-02-11T08:16:27.307Z,103207.63
2023-02-11T08:18:57.302Z,103214.88
2023-02-11T08:21:27.130Z,103211.34
2023-02-11T08:23:55.119Z,103218.56
2023-02-11T08:26:24.674Z,103207.97
2023-02-11T08:28:53.897Z,103213.41
2023-02-11T08:31:23.905Z,103207.91
2023-02-11T08:33:52.246Z,103209.81
2023-02-11T08:36:23.166Z,103221.41
2023-02-11T08:38:52.391Z,103218.03
2023-02-11T08:41:20.121Z,103213.69
2023-02-11T08:43:47.861Z,103223.47
2023-02-11T08:46:18.429Z,103222.69
2023-02-11T08:48:47.125Z,103226.25
2023-02-11T08:51:17.300Z,103220.97
2023-02-11T08:53:45.367Z,103220.09
2023-02-11T08:56:17.271Z,103216.59
2023-02-11T08:58:45.011Z,103216.72
2023-02-11T09:01:13.761Z,103224.97
2023-02-11T09:03:41.814Z,103231.19
2023-02-11T09:06:11.316Z,103234.75
2023-02-11T09:08:40.372Z,103246.41
2023-02-11T09:11:08.974Z,103252.75
2023-02-11T09:13:38.727Z,103246.59
2023-02-11T09:16:07.184Z,103243.09
2023-02-11T09:18:34.915Z,103245.09
2023-02-11T09:21:07.585Z,103239.81
2023-02-11T09:23:35.764Z,103242.53
2023-02-11T09:26:09.204Z,103246.16
2023-02-11T09:28:38.759Z,103250.59
2023-02-11T09:31:07.586Z,103254.22
2023-02-11T09:33:35.512Z,103250.91
2023-02-11T09:36:03.483Z,103257.25
2023-02-11T09:38:31.347Z,103261.91
2023-02-11T09:40:59.673Z,103259.28
2023-02-11T09:43:34.135Z,103258.44
2023-02-11T09:46:03.830Z,103264.75
2023-02-11T09:48:39.387Z,103268.41
2023-02-11T09:51:14.038Z,103280.25
2023-02-11T09:53:44.236Z,103273.19
2023-02-11T09:56:14.683Z,103277.88
2023-02-11T09:58:44.478Z,103274.41
2023-02-11T10:01:21.824Z,103277.13
2023-02-11T10:04:01.883Z,103281.53
2023-02-11T10:06:40.789Z,103282.47
2023-02-11T10:09:21.144Z,103284.34
2023-02-11T10:11:59.936Z,103288.84
2023-02-11T10:14:50.448Z,103292.53
2023-02-11T10:17:29.705Z,103290.97
2023-02-11T10:20:09.763Z,103281.38
2023-02-11T10:22:42.420Z,103284.22
2023-02-11T10:25:21.205Z,103282.69
2023-02-11T10:27:49.743Z,103290.81
2023-02-11T10:30:24.762Z,103298.06
2023-02-11T10:32:58.779Z,103296.31
2023-02-11T10:35:27.227Z,103298.94
2023-02-11T10:37:56.031Z,103298.19
2023-02-11T10:40:25.496Z,103306.19
2023-02-11T10:42:56.175Z,103307.94
2023-02-11T10:45:29.364Z,103305.38
2023-02-11T10:47:59.504Z,103306.31
2023-02-11T10:50:29.501Z,103307.16
2023-02-11T10:53:14.280Z,103315.28
2023-02-11T10:55:51.224Z,103312.66
2023-02-11T10:58:27.003Z,103306.41
2023-02-11T11:00:56.822Z,103320.53
2023-02-11T11:03:28.732Z,103323.28
2023-02-11T11:05:59.763Z,103319.94
2023-02-11T11:08:40.640Z,103325.22
2023-02-11T11:11:10.814Z,103325.09
2023-02-11T11:13:40.616Z,103326.91
2023-02-11T11:16:23.498Z,103327.75
2023-02-11T11:18:54.668Z,103338.53
2023-02-11T11:21:27.209Z,103332.47
2023-02-11T11:23:56.551Z,103332.59
2023-02-11T11:26:26.392Z,103334.56
2023-02-11T11:29:01.167Z,103330.34
2023-02-11T11:31:32.895Z,103334.06
2023-02-11T11:34:05.931Z,103323.44
2023-02-11T11:36:37.714Z,103325.22
2023-02-11T11:39:19.703Z,103338.72
2023-02-11T11:41:52.815Z,103332.53
2023-02-11T11:44:27.714Z,103335.38
2023-02-11T11:47:24.301Z,103318.44
2023-02-11T11:50:06.272Z,103324.59
2023-02-11T11:52:45.438Z,103317.41
2023-02-11T11:55:19.419Z,103309.50
2023-02-11T11:57:47.416Z,103317.66
2023-02-11T12:00:17.928Z,103315.88
2023-02-11T12:03:20.797Z,103308.66
2023-02-11T12:06:01.503Z,103312.38
2023-02-11T12:08:43.753Z,103311.44
2023-02-11T12:11:20.664Z,103312.47
2023-02-11T12:14:05.250Z,103313.63
2023-02-11T12:16:42.390Z,103318.81
2023-02-11T12:19:42.900Z,103333.84
2023-02-11T12:22:27.392Z,103322.22
2023-02-11T12:25:10.650Z,103320.38
2023-02-11T12:27:49.371Z,103317.72
2023-02-11T12:30:41.892Z,103319.50
2023-02-11T12:33:21.416Z,103315.16
2023-02-11T12:35:59.669Z,103311.50
2023-02-11T12:38:52.324Z,103315.19
2023-02-11T12:41:58.731Z,103313.53
2023-02-11T12:44:35.153Z,103307.28
2023-02-11T12:47:13.873Z,103309.28
2023-02-11T12:50:03.384Z,103306.81
2023-02-11T12:52:46.153Z,103304.44
2023-02-11T12:55:23.499Z,103301.81
2023-02-11T12:57:54.092Z,103300.03
2023-02-11T13:00:25.641Z,103293.84
2023-02-11T13:02:59.824Z,103289.53
2023-02-11T13:05:30.475Z,103288.00
2023-02-11T13:08:05.952Z,103281.97
2023-02-11T13:10:37.885Z,103285.59
2023-02-11T13:13:17.598Z,103294.63
2023-02-11T13:15:52.382Z,103289.19
2023-02-11T13:18:35.977Z,103286.41
2023-02-11T13:21:33.459Z,103293.44
2023-02-11T13:24:09.232Z,103291.75
2023-02-11T13:26:47.235Z,103281.13
2023-02-11T13:29:23.598Z,103283.97
2023-02-11T13:31:55.776Z,103292.75
2023-02-11T13:34:28.328Z,103287.34
2023-02-11T13:36:56.674Z,103294.63
2023-02-11T13:39:25.276Z,103297.38
2023-02-11T13:42:04.003Z,103301.13
2023-02-11T13:44:35.763Z,103296.06
2023-02-11T13:47:06.374Z,103297.13
2023-02-11T13:49:40.601Z,103302.75
2023-02-11T13:52:23.476Z,103301.16
2023-02-11T13:54:52.716Z,103295.00
2023-02-11T13:57:40.153Z,103294.97
2023-02-11T14:01:06.302Z,103286.94
2023-02-11T14:03:57.333Z,103289.69
2023-02-11T14:07:01.238Z,103273.75
2023-02-11T14:09:40.703Z,103279.94
2023-02-11T14:12:24.223Z,103278.88
2023-02-11T14:15:39.093Z,103272.47
2023-02-11T14:18:59.458Z,103268.81
2023-02-11T14:21:35.453Z,103272.31
2023-02-11T14:24:46.499Z,103278.69
2023-02-11T14:27:26.669Z,103277.03
2023-02-11T14:30:14.982Z,103271.97
2023-02-11T14:33:01.639Z,103276.50
2023-02-11T14:35:45.092Z,103276.66
2023-02-11T14:38:22.984Z,103277.63
2023-02-11T14:40:56.863Z,103276.81
2023-02-11T14:43:29.546Z,103284.00
2023-02-11T14:45:59.726Z,103277.72
2023-02-11T14:48:32.518Z,103286.69
2023-02-11T14:51:03.178Z,103274.28
2023-02-11T14:53:33.697Z,103286.75
2023-02-11T14:56:01.685Z,103288.59
2023-02-11T14:58:31.682Z,103296.66
2023-02-11T15:01:02.017Z,103289.66
2023-02-11T15:03:42.669Z,103291.50
2023-02-11T15:06:19.385Z,103290.66
2023-02-11T15:08:50.568Z,103287.97
2023-02-11T15:11:21.222Z,103295.00
2023-02-11T15:13:50.409Z,103288.59
2023-02-11T15:16:22.215Z,103293.88
2023-02-11T15:18:54.212Z,103299.28
2023-02-11T15:21:24.724Z,103293.03
2023-02-11T15:24:01.091Z,103297.47
2023-02-11T15:26:29.469Z,103293.84
2023-02-11T15:28:57.644Z,103295.66
2023-02-11T15:31:28.324Z,103297.38
2023-02-11T15:34:07.655Z,103298.22
2023-02-11T15:36:37.083Z,103302.44
2023-02-11T15:39:18.801Z,103293.50
2023-02-11T15:41:48.541Z,103306.81
2023-02-11T15:44:29.768Z,103307.84
2023-02-11T15:46:57.757Z,103305.13
2023-02-11T15:49:27.513Z,103304.16
2023-02-11T15:51:58.452Z,103309.53
2023-02-11T15:54:29.471Z,103307.66
2023-02-11T15:57:03.967Z,103311.19
2023-02-11T15:59:38.133Z,103314.78
2023-02-11T16:02:17.127Z,103313.06
2023-02-11T16:04:53.483Z,103310.19
2023-02-11T16:07:43.178Z,103311.13
2023-02-11T16:10:25.447Z,103313.75
2023-02-11T16:12:55.733Z,103309.13
2023-02-11T16:15:44.483Z,103308.19
2023-02-11T16:18:39.387Z,103308.19
2023-02-11T16:21:16.736Z,103314.47
2023-02-11T16:23:51.849Z,103317.19
2023-02-11T16:26:28.830Z,103327.88
2023-02-11T16:29:07.938Z,103327.03
2023-02-11T16:31:37.514Z,103332.34
2023-02-11T16:34:13.075Z,103337.59
2023-02-11T16:36:42.699Z,103340.22
2023-02-11T16:39:11.427Z,103338.47
2023-02-11T16:41:39.795Z,103342.91
2023-02-11T16:44:08.288Z,103351.81
2023-02-11T16:46:38.244Z,103350.06
2023-02-11T16:49:11.693Z,103343.81
2023-02-11T16:51:41.081Z,103337.56
2023-02-11T16:54:14.261Z,103347.31
2023-02-11T16:56:42.153Z,103347.16
2023-02-11T16:59:10.733Z,103353.25
2023-02-11T17:01:40.176Z,103358.53
2023-02-11T17:04:11.728Z,103361.13
2023-02-11T17:06:39.559Z,103362.03
2023-02-11T17:09:08.569Z,103369.16
2023-02-11T17:11:37.775Z,103362.03
2023-02-11T17:14:05.543Z,103367.31
2023-02-11T17:16:33.355Z,103361.88
2023-02-11T17:19:04.231Z,103364.50
2023-02-11T17:21:32.261Z,103370.66
2023-02-11T17:24:00.578Z,103372.34
2023-02-11T17:26:28.515Z,103369.56
2023-02-11T17:28:57.804Z,103366.94
2023-02-11T17:31:25.839Z,103363.44
2023-02-11T17:33:53.666Z,103374.06
2023-02-11T17:36:21.460Z,103372.28
2023-02-11T17:38:49.193Z,103375.91
2023-02-11T17:41:16.973Z,103381.19
2023-02-11T17:43:44.963Z,103376.75
2023-02-11T17:46:14.312Z,103382.13
2023-02-11T17:48:42.221Z,103378.53
2023-02-11T17:51:23.975Z,103382.03
2023-02-11T17:53:51.802Z,103377.50
2023-02-11T17:56:19.844Z,103385.50
2023-02-11T17:58:50.296Z,103397.13
2023-02-11T18:01:19.479Z,103397.03
2023-02-11T18:03:50.162Z,103401.47
2023-02-11T18:06:17.964Z,103397.81
2023-02-11T18:08:45.709Z,103414.75
2023-02-11T18:11:15.153Z,103416.38
2023-02-11T18:13:43.377Z,103424.38
2023-02-11T18:16:15.529Z,103417.31
2023-02-11T18:18:53.958Z,103425.38
2023-02-11T18:21:23.385Z,103422.66
2023-02-11T18:23:51.557Z,103421.72
2023-02-11T18:26:21.615Z,103422.66
2023-02-11T18:28:49.478Z,103423.38
2023-02-11T18:31:18.332Z,103424.38
2023-02-11T18:33:47.910Z,103417.31
2023-02-11T18:36:16.928Z,103426.16
2023-02-11T18:38:49.906Z,103418.91
2023-02-11T18:41:17.700Z,103423.38
2023-02-11T18:43:45.634Z,103426.13
2023-02-11T18:46:15.389Z,103435.84
2023-02-11T18:48:44.777Z,103432.25
2023-02-11T18:51:15.863Z,103439.41
2023-02-11T18:53:44.436Z,103431.47
2023-02-11T18:56:15.279Z,103435.03
2023-02-11T18:58:43.479Z,103429.72
2023-02-11T19:01:13.924Z,103436.84
2023-02-11T19:03:41.803Z,103440.25
2023-02-11T19:06:16.913Z,103441.00
2023-02-11T19:08:44.693Z,103446.19
2023-02-11T19:11:12.955Z,103449.75
2023-02-11T19:13:40.703Z,103454.25
2023-02-11T19:16:11.438Z,103457.91
2023-02-11T19:18:39.654Z,103463.16
2023-02-11T19:21:09.238Z,103465.84
2023-02-11T19:23:39.379Z,103463.09
2023-02-11T19:26:07.432Z,103461.31
2023-02-11T19:28:37.195Z,103469.38
2023-02-11T19:31:09.280Z,103467.66
2023-02-11T19:33:37.781Z,103468.50
2023-02-11T19:36:07.423Z,103462.22
2023-02-11T19:38:35.820Z,103467.56
2023-02-11T19:41:05.427Z,103477.34
2023-02-11T19:43:33.340Z,103477.13
2023-02-11T19:46:02.950Z,103486.09
2023-02-11T19:48:31.129Z,103488.75
2023-02-11T19:50:59.374Z,103495.00
2023-02-11T19:53:27.731Z,103488.81
2023-02-11T19:55:55.552Z,103485.25
2023-02-11T19:58:24.718Z,103486.97
2023-02-11T20:00:52.554Z,103492.31
2023-02-11T20:03:20.291Z,103495.00
2023-02-11T20:05:48.045Z,103505.69
2023-02-11T20:08:17.122Z,103502.06
2023-02-11T20:10:44.948Z,103504.78
2023-02-11T20:13:12.684Z,103510.00
2023-02-11T20:15:41.955Z,103499.22
2023-02-11T20:18:09.700Z,103510.00
2023-02-11T20:20:39.383Z,103502.00
2023-02-11T20:23:07.144Z,103511.75
2023-02-11T20:25:34.933Z,103507.28
2023-02-11T20:28:03.678Z,103506.41
2023-02-11T20:30:31.465Z,103518.03
2023-02-11T20:33:00.599Z,103513.47
2023-02-11T20:35:28.331Z,103517.91
2023-02-11T20:37:56.161Z,103521.41
2023-02-11T20:40:23.903Z,103522.31
2023-02-11T20:42:52.417Z,103521.53
2023-02-11T20:45:20.110Z,103521.53
2023-02-11T20:47:47.846Z,103529.50
2023-02-11T20:50:17.054Z,103525.91
2023-02-11T20:52:44.847Z,103533.06
2023-02-11T20:55:13.124Z,103532.16
2023-02-11T20:57:40.847Z,103532.09
2023-02-11T21:00:13.139Z,103538.28
2023-02-11T21:02:42.569Z,103543.63
2023-02-11T21:05:10.326Z,103537.44
2023-02-11T21:07:39.497Z,103547.28
2023-02-11T21:10:16.990Z,103549.03
2023-02-11T21:12:44.711Z,103554.41
2023-02-11T21:15:13.603Z,103567.72
2023-02-11T21:17:41.419Z,103565.00
2023-02-11T21:20:15.097Z,103565.84
2023-02-11T21:22:44.131Z,103564.03
2023-02-11T21:25:11.833Z,103563.16
2023-02-11T21:27:39.739Z,103564.88
2023-02-11T21:30:08.813Z,103558.47
2023-02-11T21:32:36.584Z,103560.25
2023-02-11T21:35:04.348Z,103560.25
2023-02-11T21:37:32.254Z,103558.44
2023-02-11T21:40:01.404Z,103548.69
2023-02-11T21:42:29.155Z,103549.59
2023-02-11T21:44:56.876Z,103564.66
2023-02-11T21:47:24.591Z,103562.75
2023-02-11T21:49:52.380Z,103572.59
2023-02-11T21:52:20.126Z,103560.16
2023-02-11T21:54:50.505Z,103568.22
2023-02-11T21:57:19.827Z,103569.09
2023-02-11T21:59:47.514Z,103565.47
2023-02-11T22:02:15.217Z,103566.25
2023-02-11T22:04:42.978Z,103561.91
2023-02-11T22:07:10.769Z,103570.88
2023-02-11T22:09:39.328Z,103568.22
2023-02-11T22:12:08.669Z,103569.84
2023-02-11T22:14:38.276Z,103558.19
2023-02-11T22:17:08.488Z,103564.38
2023-02-11T22:19:36.232Z,103559.03
2023-02-11T22:22:04.069Z,103559.03
2023-02-11T22:24:31.728Z,103559.09
2023-02-11T22:26:59.421Z,103572.50
2023-02-11T22:29:27.117Z,103564.50
2023-02-11T22:31:56.262Z,103576.16
2023-02-11T22:34:24.011Z,103570.75
2023-02-11T22:36:51.723Z,103572.72
2023-02-11T22:39:19.473Z,103570.94
2023-02-11T22:41:49.952Z,103569.06
2023-02-11T22:44:18.368Z,103572.72
2023-02-11T22:46:46.060Z,103577.13
2023-02-11T22:49:17.208Z,103577.94
2023-02-11T22:51:44.995Z,103583.13
2023-02-11T22:54:15.337Z,103581.00
2023-02-11T22:56:43.404Z,103578.28
2023-02-11T22:59:13.896Z,103585.31
2023-02-11T23:01:42.384Z,103588.13
2023-02-11T23:04:12.881Z,103587.13
2023-02-11T23:06:42.021Z,103588.06
2023-02-11T23:09:12.180Z,103591.63
2023-02-11T23:11:40.951Z,103588.13
2023-02-11T23:14:11.952Z,103588.00
2023-02-11T23:16:39.943Z,103583.50
2023-02-11T23:19:09.951Z,103588.91
2023-02-11T23:21:41.056Z,103583.25
2023-02-11T23:24:11.915Z,103592.28
2023-02-11T23:26:40.372Z,103597.69
2023-02-11T23:29:08.857Z,103606.69
2023-02-11T23:31:39.803Z,103609.47
2023-02-11T23:34:08.518Z,103601.53
2023-02-11T23:36:36.579Z,103608.69
2023-02-11T23:39:15.301Z,103603.06
2023-02-11T23:41:43.070Z,103610.13
2023-02-11T23:44:11.761Z,103609.41
2023-02-11T23:46:39.847Z,103604.13
2023-02-11T23:49:07.652Z,103606.75
2023-02-11T23:51:35.412Z,103616.44
2023-02-11T23:54:03.390Z,103610.25
2023-02-11T23:56:33.130Z,103613.03
2023-02-11T23:59:00.957Z,103608.63
